Time;durP1;ratioP1;P1;durP2;ratioP2;P2;SDS_P1;SDS_P2;PMS_P1;PMS_P2;Temp;Humidity;BMP_temperature;BMP_pressure;BME280_temperature;BME280_humidity;BME280_pressure;Samples;Min_cycle;Max_cycle;Signal;HPM_P1;HPM_P2
2023/03/20 00:01:18;;;;;;;3.40;3.10;;;10.90;41.20;;;;;;5098702;28;20422;-44
2023/03/20 00:03:44;;;;;;;4.00;3.70;;;10.90;82.20;;;;;;5099182;28;20772;-44
2023/03/20 00:06:27;;;;;;;4.30;3.80;;;10.90;61.10;;;;;;5099418;28;20457;-44
2023/03/20 00:08:54;;;;;;;5.23;2.97;;;10.90;39.80;;;;;;5099396;28;20230;-41
2023/03/20 00:11:25;;;;;;;3.83;3.30;;;10.90;91.10;;;;;;5098821;28;20426;-42
2023/03/20 00:13:56;;;;;;;3.60;3.30;;;10.90;99.90;;;;;;5099560;28;20700;-45
2023/03/20 00:16:23;;;;;;;4.50;4.10;;;10.90;99.90;;;;;;5098021;28;20815;-43
2023/03/20 00:18:49;;;;;;;3.50;3.20;;;10.90;99.90;;;;;;5098844;28;20488;-43
2023/03/20 00:21:18;;;;;;;3.00;2.70;;;10.90;99.90;;;;;;5099370;28;20411;-43
2023/03/20 00:23:44;;;;;;;2.60;2.40;;;10.90;99.90;;;;;;5099617;28;20515;-42
2023/03/20 00:26:17;;;;;;;3.27;2.60;;;10.90;99.90;;;;;;5098087;28;20474;-42
2023/03/20 00:28:46;;;;;;;2.40;2.20;;;10.90;99.90;;;;;;5099287;28;20678;-43
2023/03/20 00:31:31;;;;;;;2.63;2.43;;;10.80;32.20;;;;;;5098873;28;20433;-43
2023/03/20 00:33:59;;;;;;;2.20;2.00;;;10.80;10.10;;;;;;5098987;28;20450;-43
2023/03/20 00:36:25;;;;;;;2.10;1.77;;;10.80;1.00;;;;;;5096634;28;20758;-43
2023/03/20 00:38:51;;;;;;;2.10;1.83;;;10.80;1.00;;;;;;5095251;28;20470;-45
2023/03/20 00:41:44;;;;;;;2.30;1.90;;;10.80;1.00;;;;;;5097495;28;20407;-43
2023/03/20 00:44:36;;;;;;;2.60;1.70;;;10.80;1.00;;;;;;5087214;28;20525;-43
2023/03/20 00:47:23;;;;;;;1.63;1.40;;;10.80;1.00;;;;;;5086737;28;20450;-42
2023/03/20 00:49:50;;;;;;;1.87;1.50;;;10.70;1.00;;;;;;5097814;28;20438;-43
2023/03/20 00:52:20;;;;;;;2.23;1.70;;;10.70;1.00;;;;;;5098003;28;20454;-44
2023/03/20 00:54:46;;;;;;;1.30;1.10;;;10.70;1.00;;;;;;5097257;28;20721;-44
2023/03/20 00:57:27;;;;;;;1.60;1.20;;;10.70;1.00;;;;;;5096700;28;20442;-43
2023/03/20 01:00:00;;;;;;;1.70;1.27;;;10.70;1.00;;;;;;5097459;28;20169;-41
2023/03/20 01:02:27;;;;;;;2.60;1.27;;;10.70;1.00;;;;;;5097394;28;20441;-43
2023/03/20 01:04:53;;;;;;;1.43;1.13;;;10.70;1.00;;;;;;5097896;28;20866;-40
2023/03/20 01:07:19;;;;;;;1.47;1.30;;;10.70;1.00;;;;;;5097619;28;20499;-43
2023/03/20 01:09:46;;;;;;;1.80;1.27;;;10.70;1.00;;;;;;5097904;28;20805;-44
2023/03/20 01:12:12;;;;;;;2.67;1.47;;;10.70;99.90;;;;;;5096788;28;20832;-43
2023/03/20 01:14:38;;;;;;;1.63;1.20;;;10.70;99.90;;;;;;5094237;28;20520;-44
2023/03/20 01:17:03;;;;;;;1.50;1.20;;;10.70;99.90;;;;;;5097039;28;20467;-44
2023/03/20 01:19:29;;;;;;;1.43;1.30;;;10.70;99.90;;;;;;5098871;28;20296;-46
2023/03/20 01:21:55;;;;;;;2.57;1.70;;;10.70;99.90;;;;;;5097612;28;20188;-41
2023/03/20 01:24:21;;;;;;;1.60;1.20;;;10.70;99.90;;;;;;5097281;28;20180;-40
2023/03/20 01:26:46;;;;;;;2.00;1.40;;;10.70;99.90;;;;;;5098159;28;20748;-41
2023/03/20 01:29:23;;;;;;;1.97;1.77;;;10.70;99.90;;;;;;5098130;28;20180;-41
2023/03/20 01:31:50;;;;;;;2.60;1.63;;;10.70;99.90;;;;;;5098146;28;20263;-43
2023/03/20 01:34:16;;;;;;;2.50;1.77;;;10.70;99.90;;;;;;5097237;28;20814;-42
2023/03/20 01:36:48;;;;;;;1.47;1.23;;;10.70;99.90;;;;;;5097511;28;20419;-43
2023/03/20 01:39:14;;;;;;;2.70;1.17;;;10.60;99.90;;;;;;5096621;28;20709;-46
2023/03/20 01:41:40;;;;;;;2.33;1.23;;;10.60;99.90;;;;;;5097437;28;20471;-43
2023/03/20 01:44:21;;;;;;;1.50;1.10;;;10.60;90.00;;;;;;5097298;28;20427;-42
2023/03/20 01:46:47;;;;;;;2.00;1.00;;;10.60;72.50;;;;;;5097045;28;20488;-45
2023/03/20 01:49:22;;;;;;;1.70;1.00;;;10.50;40.40;;;;;;5096139;28;20441;-47
2023/03/20 01:51:49;;;;;;;1.33;1.03;;;10.50;52.80;;;;;;5097308;28;20496;-47
2023/03/20 01:54:15;;;;;;;1.00;0.73;;;10.50;50.60;;;;;;5097694;28;20423;-46
2023/03/20 01:56:49;;;;;;;1.63;0.90;;;10.50;53.80;;;;;;5097216;28;20862;-43
2023/03/20 01:59:40;;;;;;;1.10;0.70;;;10.50;44.40;;;;;;5096566;28;20230;-41
2023/03/20 02:02:06;;;;;;;1.10;1.00;;;10.50;1.00;;;;;;5097252;28;20414;-42
2023/03/20 02:04:35;;;;;;;1.20;0.77;;;10.40;1.00;;;;;;5096454;28;20820;-43
2023/03/20 02:07:01;;;;;;;1.40;0.67;;;10.40;1.00;;;;;;5096692;28;20488;-48
2023/03/20 02:09:27;;;;;;;1.00;0.50;;;10.40;1.00;;;;;;5096900;28;20430;-43
2023/03/20 02:11:53;;;;;;;1.27;0.60;;;10.40;1.00;;;;;;5096546;28;20410;-43
2023/03/20 02:14:19;;;;;;;1.37;0.80;;;10.40;1.00;;;;;;5095732;28;20180;-45
2023/03/20 02:16:46;;;;;;;1.00;0.63;;;10.40;1.00;;;;;;5095792;28;20421;-46
2023/03/20 02:19:26;;;;;;;1.03;0.67;;;10.40;1.00;;;;;;5096417;28;20832;-46
2023/03/20 02:22:24;;;;;;;1.00;0.70;;;10.40;1.00;;;;;;5079695;28;20700;-43
2023/03/20 02:25:14;;;;;;;1.00;0.70;;;10.40;1.00;;;;;;5095808;28;20422;-46
2023/03/20 02:28:12;;;;;;;1.00;0.70;;;10.40;1.00;;;;;;5096212;28;20907;-46
2023/03/20 02:31:03;;;;;;;1.40;0.70;;;10.40;1.00;;;;;;5095691;28;20506;-44
2023/03/20 02:33:53;;;;;;;1.30;0.60;;;10.40;1.00;;;;;;5096539;28;20450;-46
2023/03/20 02:36:36;;;;;;;0.80;0.60;;;10.40;1.00;;;;;;5096315;28;20501;-47
2023/03/20 02:39:11;;;;;;;2.30;1.00;;;10.40;1.00;;;;;;5095401;28;20469;-43
2023/03/20 02:41:57;;;;;;;1.47;0.70;;;10.40;1.00;;;;;;5096021;28;20406;-44
2023/03/20 02:45:03;;;;;;;1.50;0.53;;;10.30;1.00;;;;;;5096458;28;20410;-44
2023/03/20 02:47:46;;;;;;;1.97;0.70;;;10.30;1.00;;;;;;5096583;28;20442;-45
2023/03/20 02:50:29;;;;;;;1.97;0.60;;;10.30;1.00;;;;;;5094901;28;20414;-45
2023/03/20 02:56:24;;;;;;;1.30;0.70;;;10.30;1.00;;;;;;5096511;28;20735;-44
2023/03/20 02:59:22;;;;;;;1.70;0.70;;;10.30;1.00;;;;;;5095858;28;20467;-43
2023/03/20 03:02:12;;;;;;;0.90;0.63;;;10.30;1.00;;;;;;5079304;28;20876;-43
2023/03/20 03:04:43;;;;;;;1.10;0.50;;;10.30;1.00;;;;;;5099931;28;20432;-43
2023/03/20 03:07:10;;;;;;;1.00;0.60;;;10.30;1.00;;;;;;5099136;28;20430;-45
2023/03/20 03:09:42;;;;;;;1.17;0.80;;;10.30;1.00;;;;;;5099185;28;20407;-42
2023/03/20 03:12:18;;;;;;;1.33;0.70;;;10.20;1.00;;;;;;5099888;28;20446;-43
2023/03/20 03:14:47;;;;;;;0.90;0.60;;;10.30;1.00;;;;;;5098911;28;20434;-45
2023/03/20 03:17:15;;;;;;;1.30;0.87;;;10.30;1.00;;;;;;5099279;28;20738;-44
2023/03/20 03:19:45;;;;;;;1.00;0.70;;;10.30;1.00;;;;;;5098426;28;20479;-46
2023/03/20 03:22:11;;;;;;;1.20;0.70;;;10.30;99.90;;;;;;5099036;28;20418;-44
2023/03/20 03:24:41;;;;;;;1.10;0.67;;;10.30;99.90;;;;;;5100339;28;20492;-44
2023/03/20 03:27:18;;;;;;;1.30;0.57;;;10.30;99.90;;;;;;5099764;28;20895;-44
2023/03/20 03:29:50;;;;;;;1.20;0.70;;;10.30;99.90;;;;;;5098436;28;20525;-43
2023/03/20 03:32:29;;;;;;;1.50;0.90;;;10.30;99.90;;;;;;5098444;28;20422;-46
2023/03/20 03:34:55;;;;;;;1.17;0.80;;;10.30;99.90;;;;;;5099880;28;20422;-46
2023/03/20 03:37:23;;;;;;;1.77;0.80;;;10.30;99.90;;;;;;5099654;28;20422;-47
2023/03/20 03:40:15;;;;;;;1.23;0.70;;;10.30;99.90;;;;;;5098419;28;20464;-43
2023/03/20 03:42:51;;;;;;;1.43;1.00;;;10.30;1.00;;;;;;5099534;28;20482;-48
2023/03/20 03:45:34;;;;;;;1.47;0.93;;;10.30;1.00;;;;;;5098457;28;20417;-47
2023/03/20 03:48:06;;;;;;;0.80;0.60;;;10.30;1.00;;;;;;5098226;28;20847;-47
2023/03/20 03:50:40;;;;;;;0.80;0.50;;;10.30;1.00;;;;;;5099455;28;20410;-44
2023/03/20 03:53:10;;;;;;;1.40;0.70;;;10.30;1.00;;;;;;5099445;28;20453;-43
2023/03/20 03:55:39;;;;;;;1.13;0.87;;;10.30;1.00;;;;;;5097508;28;20433;-46
2023/03/20 03:58:11;;;;;;;1.17;0.70;;;10.30;1.00;;;;;;5098119;28;20637;-45
2023/03/20 04:00:41;;;;;;;1.30;0.63;;;10.30;1.00;;;;;;5099349;28;20662;-45
2023/03/20 04:03:07;;;;;;;1.00;0.60;;;10.20;1.00;;;;;;5097517;28;20712;-43
2023/03/20 04:05:35;;;;;;;1.30;0.93;;;10.30;1.00;;;;;;5098466;28;20430;-45
2023/03/20 04:08:02;;;;;;;1.63;0.87;;;10.30;1.00;;;;;;5098100;28;20431;-44
2023/03/20 04:10:29;;;;;;;1.00;0.90;;;10.20;1.00;;;;;;5097746;28;20469;-44
2023/03/20 04:12:55;;;;;;;0.93;0.70;;;10.20;1.00;;;;;;5096610;28;20521;-45
2023/03/20 04:15:20;;;;;;;1.00;0.60;;;10.20;1.00;;;;;;5095392;28;20502;-42
2023/03/20 04:17:46;;;;;;;1.00;0.57;;;10.20;1.00;;;;;;5097081;28;20663;-45
2023/03/20 04:20:13;;;;;;;2.20;0.70;;;10.20;1.00;;;;;;5097520;28;20181;-44
2023/03/20 04:22:38;;;;;;;1.60;0.73;;;10.20;1.00;;;;;;5097809;28;20238;-43
2023/03/20 04:25:06;;;;;;;1.53;0.70;;;10.20;1.00;;;;;;5097436;28;20427;-43
2023/03/20 04:27:31;;;;;;;1.40;0.80;;;10.20;1.00;;;;;;5096553;28;20285;-44
2023/03/20 04:29:57;;;;;;;1.00;0.70;;;10.20;1.00;;;;;;5097758;28;20427;-45
2023/03/20 04:32:22;;;;;;;1.20;0.80;;;10.20;1.00;;;;;;5097994;28;20187;-46
2023/03/20 04:34:48;;;;;;;1.63;0.80;;;10.20;1.00;;;;;;5098991;28;20493;-45
2023/03/20 04:37:14;;;;;;;1.63;0.93;;;10.20;1.00;;;;;;5096893;28;20165;-44
2023/03/20 04:39:41;;;;;;;1.30;0.90;;;10.10;1.00;;;;;;5095714;28;20204;-43
2023/03/20 04:42:07;;;;;;;1.13;0.80;;;10.10;1.00;;;;;;5096566;28;20473;-47
2023/03/20 04:44:33;;;;;;;1.50;0.80;;;10.10;1.00;;;;;;5097974;28;20942;-46
2023/03/20 04:46:59;;;;;;;1.17;0.50;;;10.00;1.00;;;;;;5098580;28;20559;-44
2023/03/20 04:49:25;;;;;;;1.17;0.83;;;10.00;1.00;;;;;;5097746;28;20609;-43
2023/03/20 04:51:51;;;;;;;1.43;1.10;;;10.00;1.00;;;;;;5098204;28;20406;-48
2023/03/20 04:54:17;;;;;;;2.30;1.13;;;10.00;1.00;;;;;;5098340;28;20418;-45
2023/03/20 04:56:43;;;;;;;2.53;1.10;;;10.00;1.00;;;;;;5098598;28;20583;-46
2023/03/20 04:59:08;;;;;;;1.10;0.97;;;9.90;1.00;;;;;;5095959;28;20636;-43
2023/03/20 05:01:34;;;;;;;1.40;0.90;;;9.90;30.50;;;;;;5095723;28;20432;-43
2023/03/20 05:04:00;;;;;;;1.40;0.97;;;9.80;99.90;;;;;;5096690;28;20566;-44
2023/03/20 05:06:30;;;;;;;1.30;1.13;;;9.80;99.90;;;;;;5095880;28;20179;-43
2023/03/20 05:08:57;;;;;;;2.33;1.13;;;9.80;99.90;;;;;;5095385;28;20447;-42
2023/03/20 05:11:24;;;;;;;1.40;1.00;;;9.80;99.90;;;;;;5095201;28;20449;-43
2023/03/20 05:13:50;;;;;;;1.40;1.10;;;9.80;99.90;;;;;;5094239;28;20426;-43
2023/03/20 05:16:16;;;;;;;1.40;1.10;;;9.70;99.90;;;;;;5094339;28;20422;-44
2023/03/20 05:18:42;;;;;;;1.50;0.93;;;9.80;99.90;;;;;;5094800;28;20255;-43
2023/03/20 05:21:07;;;;;;;1.40;0.80;;;9.70;99.90;;;;;;5095195;28;20494;-44
2023/03/20 05:23:33;;;;;;;1.83;0.97;;;9.70;99.90;;;;;;5095253;28;20179;-44
2023/03/20 05:25:59;;;;;;;1.37;1.10;;;9.80;99.90;;;;;;5095056;28;20263;-45
2023/03/20 05:28:24;;;;;;;1.27;0.87;;;9.70;99.90;;;;;;5095146;28;20280;-45
2023/03/20 05:30:50;;;;;;;1.03;0.80;;;9.80;99.90;;;;;;5096454;28;20286;-44
2023/03/20 05:33:16;;;;;;;1.50;0.90;;;9.80;99.90;;;;;;5095018;28;20185;-44
2023/03/20 05:35:41;;;;;;;2.10;1.47;;;9.80;99.90;;;;;;5094898;28;20188;-44
2023/03/20 05:38:07;;;;;;;1.40;1.13;;;9.80;99.90;;;;;;5093900;28;20204;-46
2023/03/20 05:40:32;;;;;;;1.43;1.07;;;9.90;99.90;;;;;;5092437;28;20428;-45
2023/03/20 05:42:58;;;;;;;2.00;1.20;;;9.90;99.90;;;;;;5093235;28;20178;-46
2023/03/20 05:45:24;;;;;;;2.53;1.40;;;9.90;99.90;;;;;;5094543;28;20181;-45
2023/03/20 05:47:49;;;;;;;6.40;1.30;;;10.00;99.90;;;;;;5093531;28;20282;-45
2023/03/20 05:50:15;;;;;;;1.30;0.90;;;10.00;99.90;;;;;;5094338;28;20465;-46
2023/03/20 05:52:41;;;;;;;2.20;1.13;;;10.00;43.30;;;;;;5094707;28;20627;-44
2023/03/20 05:55:07;;;;;;;2.33;1.47;;;10.10;1.00;;;;;;5093917;28;20482;-44
2023/03/20 05:57:32;;;;;;;2.00;1.10;;;10.20;1.00;;;;;;5092090;28;20262;-47
2023/03/20 05:59:58;;;;;;;1.43;1.13;;;10.20;1.00;;;;;;5092476;28;20462;-45
2023/03/20 06:02:24;;;;;;;1.77;1.37;;;10.30;1.00;;;;;;5091761;28;20176;-44
2023/03/20 06:04:49;;;;;;;1.60;1.20;;;10.30;1.00;;;;;;5095163;28;20172;-44
2023/03/20 06:07:15;;;;;;;2.07;1.40;;;10.40;99.90;;;;;;5094314;28;20183;-46
2023/03/20 06:09:40;;;;;;;2.17;1.20;;;10.50;99.90;;;;;;5094208;28;20188;-43
2023/03/20 06:12:06;;;;;;;2.03;1.33;;;10.50;99.90;;;;;;5092504;28;20194;-43
2023/03/20 06:14:32;;;;;;;2.43;1.43;;;10.60;99.90;;;;;;5088904;28;20480;-43
2023/03/20 06:16:59;;;;;;;1.90;1.50;;;10.70;99.90;;;;;;5090103;28;20531;-47
2023/03/20 06:19:25;;;;;;;1.80;1.30;;;10.80;99.90;;;;;;5091300;28;20347;-45
2023/03/20 06:21:50;;;;;;;1.63;1.40;;;10.90;58.80;;;;;;5089954;28;20509;-48
2023/03/20 06:24:16;;;;;;;1.60;1.23;;;11.00;1.00;;;;;;5084093;28;20184;-45
2023/03/20 06:26:42;;;;;;;1.77;1.17;;;11.00;1.00;;;;;;5069301;28;20275;-43
2023/03/20 06:29:07;;;;;;;2.03;1.70;;;11.20;1.00;;;;;;5077710;28;20206;-43
2023/03/20 06:31:33;;;;;;;1.67;1.47;;;11.30;1.00;;;;;;5088380;28;20605;-46
2023/03/20 06:33:59;;;;;;;1.90;1.80;;;11.40;1.00;;;;;;5087332;28;20191;-44
2023/03/20 06:36:24;;;;;;;2.00;1.60;;;11.50;1.00;;;;;;5087290;28;20180;-45
2023/03/20 06:38:51;;;;;;;1.97;1.33;;;11.70;99.90;;;;;;5088915;28;20262;-44
2023/03/20 06:41:16;;;;;;;1.57;1.47;;;11.90;99.90;;;;;;5092422;28;20181;-44
2023/03/20 06:43:43;;;;;;;2.03;1.37;;;12.20;99.90;;;;;;5088247;28;20414;-48
2023/03/20 06:46:08;;;;;;;3.33;1.43;;;12.50;1.00;;;;;;5088202;28;20177;-44
2023/03/20 06:48:34;;;;;;;1.50;1.17;;;12.80;1.00;;;;;;5085903;28;20579;-46
2023/03/20 06:51:00;;;;;;;2.07;1.10;;;13.10;1.00;;;;;;5085758;28;20180;-47
2023/03/20 06:53:26;;;;;;;1.93;1.30;;;13.40;99.90;;;;;;5086273;28;20241;-46
2023/03/20 06:55:51;;;;;;;1.27;1.00;;;13.70;99.90;;;;;;5087310;28;20536;-46
2023/03/20 06:58:17;;;;;;;1.37;1.00;;;14.10;99.90;;;;;;5087903;28;20458;-43
2023/03/20 07:00:43;;;;;;;2.30;1.27;;;14.50;99.90;;;;;;5090869;28;20180;-44
2023/03/20 07:03:10;;;;;;;1.50;1.10;;;14.90;23.10;;;;;;5091367;28;20253;-43
2023/03/20 07:05:37;;;;;;;1.57;1.00;;;15.40;1.00;;;;;;5090412;28;20454;-41
2023/03/20 07:08:03;;;;;;;1.73;1.20;;;15.80;1.00;;;;;;5092751;28;20414;-44
2023/03/20 07:10:28;;;;;;;1.80;1.27;;;16.20;1.00;;;;;;5093826;28;20422;-42
2023/03/20 07:12:54;;;;;;;1.10;0.80;;;16.50;1.00;;;;;;5091479;28;20271;-43
2023/03/20 07:15:20;;;;;;;1.20;1.00;;;16.90;1.00;;;;;;5091381;28;20234;-44
2023/03/20 07:17:46;;;;;;;1.63;1.30;;;17.30;1.00;;;;;;5090711;28;20282;-42
2023/03/20 07:20:13;;;;;;;2.10;1.23;;;17.60;1.00;;;;;;5090619;28;20414;-43
2023/03/20 07:22:40;;;;;;;1.33;1.17;;;18.00;1.00;;;;;;5088627;28;20632;-42
2023/03/20 07:25:07;;;;;;;2.17;1.20;;;18.20;1.00;;;;;;5093790;28;20428;-43
2023/03/20 07:27:32;;;;;;;1.20;0.87;;;18.10;1.00;;;;;;5092386;28;20806;-42
2023/03/20 07:29:58;;;;;;;3.80;1.30;;;17.80;1.00;;;;;;5093019;28;20411;-42
2023/03/20 07:32:24;;;;;;;1.40;1.10;;;17.50;1.00;;;;;;5092923;28;20259;-44
2023/03/20 07:34:49;;;;;;;2.13;1.30;;;17.00;1.00;;;;;;5093901;28;20176;-45
2023/03/20 07:37:16;;;;;;;1.70;1.50;;;16.70;1.00;;;;;;5092737;28;20635;-43
2023/03/20 07:39:41;;;;;;;1.80;1.50;;;16.40;1.00;;;;;;5090379;28;20335;-42
2023/03/20 07:42:07;;;;;;;1.77;1.47;;;16.40;1.00;;;;;;5091629;28;20520;-41
2023/03/20 07:44:33;;;;;;;2.27;1.10;;;16.50;1.00;;;;;;5090162;28;20195;-46
2023/03/20 07:46:59;;;;;;;2.47;1.50;;;16.80;1.00;;;;;;5091392;28;20188;-45
2023/03/20 07:49:25;;;;;;;1.40;1.30;;;17.10;1.00;;;;;;5094667;28;20418;-44
2023/03/20 07:51:51;;;;;;;1.30;1.10;;;17.40;1.00;;;;;;5094398;28;20181;-44
2023/03/20 07:54:16;;;;;;;1.93;1.33;;;17.70;1.00;;;;;;5093271;28;20426;-43
2023/03/20 07:56:42;;;;;;;1.97;1.57;;;18.30;1.00;;;;;;5093730;28;20500;-43
2023/03/20 07:59:08;;;;;;;2.50;1.70;;;18.60;1.00;;;;;;5096172;28;20568;-43
2023/03/20 08:01:34;;;;;;;2.13;1.47;;;18.50;1.00;;;;;;5096186;28;20192;-43
2023/03/20 08:03:59;;;;;;;1.83;1.63;;;18.30;1.00;;;;;;5095512;28;20180;-45
2023/03/20 08:06:25;;;;;;;1.87;1.40;;;18.10;1.00;;;;;;5093862;28;20215;-45
2023/03/20 08:08:51;;;;;;;1.53;1.43;;;17.90;1.00;;;;;;5094300;28;20298;-43
2023/03/20 08:11:18;;;;;;;2.47;1.40;;;17.70;1.00;;;;;;5096891;28;20204;-46
2023/03/20 08:13:43;;;;;;;1.63;1.40;;;17.60;1.00;;;;;;5096245;28;20720;-47
2023/03/20 08:16:09;;;;;;;2.77;1.80;;;17.50;1.00;;;;;;5097324;28;20425;-44
2023/03/20 08:18:35;;;;;;;2.13;1.37;;;17.30;1.00;;;;;;5094141;28;20207;-46
2023/03/20 08:21:00;;;;;;;2.47;1.47;;;17.30;1.00;;;;;;5095319;28;20172;-46
2023/03/20 08:23:26;;;;;;;2.37;1.77;;;17.10;1.00;;;;;;5095581;28;20200;-44
2023/03/20 08:25:53;;;;;;;1.50;1.20;;;16.90;1.00;;;;;;5096079;28;20439;-43
2023/03/20 08:28:19;;;;;;;1.90;1.20;;;16.70;1.00;;;;;;5095732;28;20427;-46
2023/03/20 08:30:45;;;;;;;2.00;1.50;;;16.50;1.00;;;;;;5095106;28;20418;-43
2023/03/20 08:33:11;;;;;;;1.73;1.43;;;16.40;1.00;;;;;;5093550;28;20437;-46
2023/03/20 08:35:36;;;;;;;1.40;1.30;;;16.30;1.00;;;;;;5093926;28;20183;-44
2023/03/20 08:38:02;;;;;;;1.73;1.27;;;16.20;1.00;;;;;;5094692;28;20607;-43
2023/03/20 08:40:28;;;;;;;1.53;1.30;;;16.20;1.00;;;;;;5093560;28;20169;-44
2023/03/20 08:42:53;;;;;;;1.20;1.00;;;16.20;1.00;;;;;;5094793;28;20453;-44
2023/03/20 08:45:19;;;;;;;1.53;1.40;;;16.20;1.00;;;;;;5093355;28;20444;-44
2023/03/20 08:47:48;;;;;;;2.43;1.83;;;16.30;1.00;;;;;;5092737;28;20415;-45
2023/03/20 08:50:14;;;;;;;1.70;1.60;;;16.50;1.00;;;;;;5094779;28;20300;-44
2023/03/20 08:52:43;;;;;;;3.47;1.60;;;16.60;1.00;;;;;;5096211;28;20496;-45
2023/03/20 08:55:12;;;;;;;3.23;1.70;;;16.80;1.00;;;;;;5096277;28;20406;-44
2023/03/20 08:57:38;;;;;;;1.70;1.50;;;17.10;1.00;;;;;;5096341;28;20410;-44
2023/03/20 09:00:06;;;;;;;1.80;1.40;;;17.40;1.00;;;;;;5096053;28;20670;-44
2023/03/20 09:02:32;;;;;;;1.60;1.50;;;17.70;1.00;;;;;;5096151;28;20428;-45
2023/03/20 09:04:58;;;;;;;2.60;1.30;;;18.10;1.00;;;;;;5097457;28;20414;-45
2023/03/20 09:07:24;;;;;;;1.80;1.17;;;18.80;1.00;;;;;;5095326;28;20883;-46
2023/03/20 09:09:50;;;;;;;3.40;1.40;;;19.40;1.00;;;;;;5096857;28;20422;-47
2023/03/20 09:12:15;;;;;;;3.53;1.23;;;19.90;1.00;;;;;;5096201;28;20199;-48
2023/03/20 09:14:41;;;;;;;2.77;0.90;;;20.30;1.00;;;;;;5096742;28;20267;-43
2023/03/20 09:17:07;;;;;;;2.30;1.30;;;20.60;1.00;;;;;;5096390;28;20176;-50
2023/03/20 09:19:33;;;;;;;4.10;1.33;;;20.80;1.00;;;;;;5095327;28;20281;-47
2023/03/20 09:21:59;;;;;;;1.27;1.00;;;20.80;1.00;;;;;;5095927;28;20160;-48
2023/03/20 09:24:25;;;;;;;2.23;1.10;;;20.90;1.00;;;;;;5092925;28;20406;-47
2023/03/20 09:26:51;;;;;;;2.67;2.13;;;20.90;1.00;;;;;;5093964;28;20890;-51
2023/03/20 09:29:16;;;;;;;1.70;1.10;;;20.80;1.00;;;;;;5094914;28;20514;-49
2023/03/20 09:31:42;;;;;;;2.20;0.97;;;20.80;1.00;;;;;;5095797;28;20505;-48
2023/03/20 09:34:08;;;;;;;2.50;1.10;;;20.80;1.00;;;;;;5093104;28;20215;-47
2023/03/20 09:36:33;;;;;;;4.07;1.40;;;20.90;1.00;;;;;;5094568;28;20473;-48
2023/03/20 09:38:59;;;;;;;2.63;2.00;;;21.00;1.00;;;;;;5096206;28;20302;-44
2023/03/20 09:41:26;;;;;;;1.63;1.40;;;21.20;1.00;;;;;;5096118;28;20191;-45
2023/03/20 09:44:11;;;;;;;1.77;1.23;;;21.10;1.00;;;;;;5094148;28;20498;-45
2023/03/20 09:46:57;;;;;;;1.70;1.43;;;21.00;1.00;;;;;;5094636;28;20418;-46
2023/03/20 09:49:26;;;;;;;1.40;1.20;;;20.90;1.00;;;;;;5095785;28;20433;-44
2023/03/20 09:51:57;;;;;;;3.03;1.27;;;20.80;1.00;;;;;;5095133;28;20529;-47
2023/03/20 09:54:28;;;;;;;1.80;1.33;;;20.60;1.00;;;;;;5076091;28;20437;-45
2023/03/20 09:56:56;;;;;;;1.40;1.20;;;20.60;1.00;;;;;;5092936;28;20401;-47
2023/03/20 09:59:23;;;;;;;3.50;1.50;;;20.50;1.00;;;;;;5093171;28;20580;-42
2023/03/20 10:01:54;;;;;;;1.63;1.47;;;20.40;1.00;;;;;;5094193;28;20501;-43
2023/03/20 10:04:21;;;;;;;1.93;1.40;;;20.30;1.00;;;;;;5094348;28;20465;-44
2023/03/20 10:06:46;;;;;;;1.73;1.40;;;20.50;1.00;;;;;;5094999;28;20406;-45
2023/03/20 10:09:24;;;;;;;1.57;1.30;;;21.00;1.00;;;;;;5095036;28;20430;-44
2023/03/20 10:12:07;;;;;;;2.13;1.40;;;21.50;1.00;;;;;;5095552;28;20172;-46
2023/03/20 10:14:41;;;;;;;1.70;1.50;;;22.10;1.00;;;;;;5093649;28;20417;-47
2023/03/20 10:17:34;;;;;;;1.50;1.20;;;22.60;1.00;;;;;;5094532;28;20584;-47
2023/03/20 10:20:08;;;;;;;1.63;1.40;;;23.00;1.00;;;;;;5094508;28;20430;-46
2023/03/20 10:22:37;;;;;;;1.57;1.40;;;23.10;1.00;;;;;;5093440;28;20680;-46
2023/03/20 10:25:07;;;;;;;2.07;1.50;;;22.80;1.00;;;;;;5093730;28;20475;-45
2023/03/20 10:27:43;;;;;;;1.70;1.40;;;22.40;1.00;;;;;;5091817;28;20879;-46
2023/03/20 10:30:17;;;;;;;2.57;1.50;;;21.90;1.00;;;;;;5092909;28;20446;-46
2023/03/20 10:32:47;;;;;;;1.90;1.17;;;21.40;1.00;;;;;;5092919;28;20526;-44
2023/03/20 10:35:48;;;;;;;2.57;1.40;;;21.00;1.00;;;;;;5093078;28;20414;-47
2023/03/20 10:38:44;;;;;;;1.63;1.00;;;20.50;1.00;;;;;;5093200;28;20855;-47
2023/03/20 10:41:15;;;;;;;1.33;1.07;;;20.10;1.00;;;;;;5053923;28;20421;-46
2023/03/20 10:43:43;;;;;;;1.30;1.00;;;19.70;1.00;;;;;;5090198;28;20787;-44
2023/03/20 10:46:37;;;;;;;1.77;1.00;;;19.30;1.00;;;;;;5090074;28;20423;-45
2023/03/20 10:49:38;;;;;;;1.90;1.10;;;19.00;1.00;;;;;;5091181;28;20554;-43
2023/03/20 10:52:14;;;;;;;1.67;1.30;;;18.70;1.00;;;;;;5091902;28;20917;-43
2023/03/20 10:54:42;;;;;;;1.73;1.43;;;18.40;1.00;;;;;;5090937;28;20418;-44
2023/03/20 10:57:35;;;;;;;1.47;0.97;;;18.10;1.00;;;;;;5090578;28;20436;-45
2023/03/20 11:00:03;;;;;;;1.17;0.77;;;17.90;1.00;;;;;;5088607;28;20434;-46
2023/03/20 11:02:30;;;;;;;1.43;0.97;;;17.80;1.00;;;;;;5090509;28;20414;-45
2023/03/20 11:04:59;;;;;;;1.37;1.00;;;17.70;1.00;;;;;;5091036;28;20848;-44
2023/03/20 11:07:35;;;;;;;2.03;1.23;;;17.70;1.00;;;;;;5091245;28;20454;-43
2023/03/20 11:10:04;;;;;;;2.10;1.70;;;17.60;1.00;;;;;;5092787;28;20421;-44
2023/03/20 11:12:56;;;;;;;1.43;0.90;;;17.40;1.00;;;;;;5093778;28;20422;-42
2023/03/20 11:15:40;;;;;;;2.30;1.13;;;17.30;1.00;;;;;;5092446;28;20407;-44
2023/03/20 11:18:12;;;;;;;2.33;1.03;;;17.20;1.00;;;;;;5089616;28;20485;-43
2023/03/20 11:20:44;;;;;;;2.03;1.30;;;17.10;1.00;;;;;;5088788;28;20871;-43
2023/03/20 11:23:15;;;;;;;2.50;1.30;;;17.10;1.00;;;;;;5095093;28;20539;-43
2023/03/20 11:26:32;;;;;;;1.27;1.00;;;17.10;1.00;;;;;;5092131;28;20407;-44
2023/03/20 11:28:59;;;;;;;2.10;1.20;;;17.20;1.00;;;;;;5094514;28;20446;-47
2023/03/20 11:31:31;;;;;;;1.47;1.07;;;17.70;1.00;;;;;;5093973;28;20413;-46
2023/03/20 11:34:15;;;;;;;1.47;1.27;;;18.40;1.00;;;;;;5094241;28;20432;-45
2023/03/20 11:37:20;;;;;;;1.50;1.00;;;20.00;1.00;;;;;;5097699;28;20652;-44
2023/03/20 11:40:01;;;;;;;1.70;1.13;;;21.90;1.00;;;;;;5079871;28;20478;-43
2023/03/20 11:42:29;;;;;;;1.30;0.97;;;23.40;1.00;;;;;;5093126;28;20680;-43
2023/03/20 11:45:00;;;;;;;1.70;1.20;;;24.10;1.00;;;;;;5093973;28;20656;-43
2023/03/20 11:47:28;;;;;;;1.40;1.00;;;24.30;1.00;;;;;;5094903;28;20430;-46
2023/03/20 11:49:56;;;;;;;1.87;1.03;;;24.20;1.00;;;;;;5093219;28;20450;-45
2023/03/20 11:52:27;;;;;;;2.80;1.20;;;24.10;1.00;;;;;;5094130;28;20440;-44
2023/03/20 11:54:55;;;;;;;1.57;0.90;;;23.80;1.00;;;;;;5094845;28;20432;-44
2023/03/20 11:57:38;;;;;;;1.77;1.23;;;23.70;1.00;;;;;;5096128;28;20642;-42
2023/03/20 12:00:15;;;;;;;1.30;1.00;;;23.40;1.00;;;;;;5095119;28;20422;-44
2023/03/20 12:02:42;;;;;;;1.80;1.30;;;23.10;1.00;;;;;;5098558;28;20449;-45
2023/03/20 12:05:34;;;;;;;2.30;1.43;;;22.80;1.00;;;;;;5095656;28;20426;-46
2023/03/20 12:08:07;;;;;;;1.53;1.20;;;22.40;1.00;;;;;;5094633;28;20852;-44
2023/03/20 12:10:38;;;;;;;1.40;1.13;;;22.10;1.00;;;;;;5091682;28;20410;-48
2023/03/20 12:13:17;;;;;;;2.00;1.40;;;21.70;1.00;;;;;;5093023;28;20437;-44
2023/03/20 12:15:59;;;;;;;1.70;1.53;;;21.50;1.00;;;;;;5096252;28;20513;-42
2023/03/20 12:18:50;;;;;;;1.60;1.30;;;21.30;1.00;;;;;;5095200;28;20803;-45
2023/03/20 12:21:21;;;;;;;2.70;1.20;;;21.20;1.00;;;;;;5093085;28;20467;-48
2023/03/20 12:24:06;;;;;;;1.30;0.93;;;21.10;1.00;;;;;;5093501;28;20509;-43
2023/03/20 12:26:35;;;;;;;1.47;1.20;;;21.10;1.00;;;;;;5094888;28;20500;-48
2023/03/20 12:29:37;;;;;;;3.03;1.33;;;21.00;1.00;;;;;;5094046;28;20433;-46
2023/03/20 12:32:44;;;;;;;3.00;1.43;;;20.80;1.00;;;;;;5092575;28;20426;-44
2023/03/20 12:35:13;;;;;;;2.37;1.50;;;20.80;1.00;;;;;;5088910;28;20579;-45
2023/03/20 12:37:38;;;;;;;1.80;1.40;;;20.70;1.00;;;;;;5093234;28;20434;-46
2023/03/20 12:40:05;;;;;;;1.73;1.27;;;20.60;1.00;;;;;;5094024;28;20413;-45
2023/03/20 12:42:39;;;;;;;1.93;1.20;;;20.60;1.00;;;;;;5094242;28;20177;-45
2023/03/20 12:45:11;;;;;;;1.87;1.40;;;20.60;1.00;;;;;;5095695;28;20401;-45
2023/03/20 12:48:10;;;;;;;1.63;1.33;;;20.70;1.00;;;;;;5094877;28;20760;-45
2023/03/20 12:50:40;;;;;;;3.60;1.40;;;21.30;1.00;;;;;;5093551;28;20427;-44
2023/03/20 12:53:27;;;;;;;1.80;1.40;;;21.70;1.00;;;;;;5094079;28;20571;-46
2023/03/20 12:56:30;;;;;;;1.33;0.93;;;22.10;1.00;;;;;;5076083;28;20591;-45
2023/03/20 12:59:08;;;;;;;1.57;1.17;;;22.70;1.00;;;;;;5094303;28;20477;-45
2023/03/20 13:01:56;;;;;;;2.03;1.70;;;23.00;1.00;;;;;;5092195;28;20788;-43
2023/03/20 13:04:43;;;;;;;2.03;1.10;;;23.00;1.00;;;;;;5070098;28;20462;-45
2023/03/20 13:07:20;;;;;;;1.80;1.10;;;22.80;1.00;;;;;;5083985;28;20530;-44
2023/03/20 13:10:22;;;;;;;1.83;1.30;;;22.70;1.00;;;;;;5087614;28;20819;-43
2023/03/20 13:13:17;;;;;;;1.23;0.90;;;22.50;1.00;;;;;;5050603;28;20405;-43
2023/03/20 13:16:01;;;;;;;1.70;1.30;;;22.20;1.00;;;;;;5091138;28;20970;-42
2023/03/20 13:18:46;;;;;;;1.87;1.33;;;21.80;1.00;;;;;;5093283;28;20752;-44
2023/03/20 13:21:22;;;;;;;1.77;1.20;;;21.50;99.90;;;;;;5090891;28;20499;-45